Terminal Aerodrome Forecast
Issued by NWS

Home | Current Version | Previous Version | Graphics & Text | Print | Product List | Glossary On
Versions: 1 2 3 4 5 6 7 8 9 10 11 12 13 14 15 16 17 18
000
FTUS43 KICT 150531
TAFRSL
TAF
KRSL 150531Z 1506/1606 01015G24KT P6SM VCSH BKN050
     FM150800 32010KT 4SM -SN SCT012 OVC025
      TEMPO 1508/1510 1SM -SN BR OVC012
     FM151000 01013KT P6SM VCSH OVC050
     FM151200 01016G24KT P6SM OVC060
     FM151500 36018G28KT P6SM BKN150=

USA.gov is the U.S. government's official web portal to all federal, state and local government web resources and services.